Time;durP1;ratioP1;P1;durP2;ratioP2;P2;SDS_P1;SDS_P2;PMS_P1;PMS_P2;Temp;Humidity;BMP_temperature;BMP_pressure;BME280_temperature;BME280_humidity;BME280_pressure;Samples;Min_cycle;Max_cycle;Signal;HPM_P1;HPM_P2
2022/04/05 00:01:03;;;;;;;4.68;1.77;;;6.70;99.90;;;;;;4997305;28;20128;-76
2022/04/05 00:03:30;;;;;;;3.92;1.70;;;6.70;99.90;;;;;;4997074;28;20041;-76
2022/04/05 00:05:55;;;;;;;9.25;2.00;;;6.70;99.90;;;;;;4996826;28;20045;-76
2022/04/05 00:08:21;;;;;;;4.00;1.50;;;6.70;99.90;;;;;;4981067;28;20120;-76
2022/04/05 00:10:47;;;;;;;5.50;1.88;;;6.70;99.90;;;;;;4997126;28;20153;-76
2022/04/05 00:13:12;;;;;;;6.88;2.53;;;6.70;99.90;;;;;;4996860;28;20050;-76
2022/04/05 00:15:38;;;;;;;6.68;2.28;;;6.60;99.90;;;;;;4978312;28;20526;-76
2022/04/05 00:18:03;;;;;;;4.70;1.85;;;6.60;99.90;;;;;;4979557;28;20042;-76
2022/04/05 00:20:30;;;;;;;5.15;1.67;;;6.70;99.90;;;;;;4997316;28;20100;-76
2022/04/05 00:22:56;;;;;;;5.13;1.50;;;6.60;99.90;;;;;;4996777;28;20456;-76
2022/04/05 00:25:22;;;;;;;4.88;1.63;;;6.60;99.90;;;;;;4980981;28;20472;-76
2022/04/05 00:27:48;;;;;;;5.78;1.52;;;6.60;99.90;;;;;;4980494;28;20057;-76
2022/04/05 00:30:15;;;;;;;5.63;1.75;;;6.60;99.90;;;;;;4977177;28;20080;-76
2022/04/05 00:32:41;;;;;;;6.85;1.77;;;6.60;99.90;;;;;;4990751;28;20435;-76
2022/04/05 00:35:08;;;;;;;4.57;1.63;;;6.60;99.90;;;;;;4980613;28;20046;-76
2022/04/05 00:37:34;;;;;;;6.78;1.60;;;6.60;99.90;;;;;;4977485;28;20400;-76
2022/04/05 00:40:00;;;;;;;4.28;1.95;;;6.60;99.90;;;;;;4963096;28;20078;-76
2022/04/05 00:42:26;;;;;;;6.72;1.70;;;6.50;99.90;;;;;;4979980;28;20522;-76
2022/04/05 00:44:51;;;;;;;4.65;1.80;;;6.50;99.90;;;;;;4979990;28;20060;-76
2022/04/05 00:47:18;;;;;;;3.80;1.23;;;6.50;99.90;;;;;;4996490;28;20046;-76
2022/04/05 00:49:45;;;;;;;3.83;1.52;;;6.50;99.90;;;;;;4996723;28;20452;-76
2022/04/05 00:52:12;;;;;;;7.00;1.70;;;6.50;99.90;;;;;;4980198;28;20057;-76
2022/04/05 00:54:40;;;;;;;3.60;1.60;;;6.50;99.90;;;;;;4996249;28;20084;-76
2022/04/05 00:57:10;;;;;;;4.90;1.88;;;6.40;99.90;;;;;;4996257;28;20496;-76
2022/04/05 00:59:38;;;;;;;5.63;1.60;;;6.40;99.90;;;;;;4996352;28;20081;-76
2022/04/05 01:02:04;;;;;;;6.15;1.50;;;6.40;99.90;;;;;;4996241;28;20077;-76
2022/04/05 01:04:30;;;;;;;6.50;1.58;;;6.40;99.90;;;;;;4996021;28;20100;-76
2022/04/05 01:06:56;;;;;;;4.47;1.33;;;6.40;99.90;;;;;;4994856;28;20073;-76
2022/04/05 01:09:22;;;;;;;5.32;1.38;;;6.40;99.90;;;;;;4979868;28;20085;-76
2022/04/05 01:11:48;;;;;;;5.28;1.38;;;6.40;99.90;;;;;;4995543;28;20073;-76
2022/04/05 01:14:14;;;;;;;5.00;1.50;;;6.40;99.90;;;;;;4995849;28;20444;-76
2022/04/05 01:16:40;;;;;;;3.83;1.15;;;6.40;99.90;;;;;;4995902;28;20049;-76
2022/04/05 01:19:07;;;;;;;3.65;1.10;;;6.30;99.90;;;;;;4979818;28;20137;-76
2022/04/05 01:21:35;;;;;;;7.10;1.63;;;6.30;99.90;;;;;;4995546;28;20094;-76
2022/04/05 01:24:12;;;;;;;5.28;1.25;;;6.30;99.90;;;;;;4995450;28;20068;-76
2022/04/05 01:26:45;;;;;;;4.85;1.10;;;6.30;99.90;;;;;;4995766;28;20046;-76
2022/04/05 01:29:13;;;;;;;4.25;1.35;;;6.30;99.90;;;;;;4995863;28;20116;-76
2022/04/05 01:31:40;;;;;;;5.22;1.40;;;6.30;99.90;;;;;;4995711;28;20038;-76
2022/04/05 01:34:07;;;;;;;3.42;1.10;;;6.30;99.90;;;;;;4995273;28;20045;-76
2022/04/05 01:36:33;;;;;;;5.18;1.58;;;6.30;99.90;;;;;;4979293;28;20095;-76
2022/04/05 01:38:58;;;;;;;4.55;1.30;;;6.30;99.90;;;;;;4995639;28;20080;-76
2022/04/05 01:41:24;;;;;;;5.55;1.60;;;6.30;99.90;;;;;;4995567;28;20073;-76
2022/04/05 01:43:50;;;;;;;6.75;1.50;;;6.30;99.90;;;;;;4978678;28;20083;-76
2022/04/05 01:46:15;;;;;;;4.30;1.90;;;6.20;99.90;;;;;;4995474;28;20083;-76
2022/04/05 01:48:41;;;;;;;9.57;2.00;;;6.20;99.90;;;;;;4979066;28;20061;-76
2022/04/05 01:51:07;;;;;;;5.10;1.95;;;6.20;99.90;;;;;;4995340;28;20385;-76
2022/04/05 01:53:32;;;;;;;4.50;1.85;;;6.20;99.90;;;;;;4995157;28;20041;-76
2022/04/05 01:55:58;;;;;;;7.35;2.08;;;6.20;99.90;;;;;;4979025;28;20042;-76
2022/04/05 01:58:24;;;;;;;5.63;1.83;;;6.20;99.90;;;;;;4995182;28;20042;-76
2022/04/05 02:00:51;;;;;;;4.80;2.25;;;6.20;99.90;;;;;;4995161;28;20519;-76
2022/04/05 02:03:16;;;;;;;8.02;2.10;;;6.20;99.90;;;;;;4994737;28;20117;-76
2022/04/05 02:05:43;;;;;;;5.47;1.92;;;6.20;99.90;;;;;;4995041;28;20536;-76
2022/04/05 02:08:09;;;;;;;13.10;2.50;;;6.20;99.90;;;;;;4995237;28;20396;-76
2022/04/05 02:10:34;;;;;;;5.75;2.20;;;6.20;99.90;;;;;;4991972;28;20053;-76
2022/04/05 02:13:00;;;;;;;6.57;1.92;;;6.20;99.90;;;;;;4975453;28;20053;-76
2022/04/05 02:15:26;;;;;;;6.75;1.90;;;6.20;99.90;;;;;;4969611;28;20042;-76
2022/04/05 02:17:51;;;;;;;5.80;2.15;;;6.20;99.90;;;;;;4993225;28;20037;-76
2022/04/05 02:20:17;;;;;;;4.18;1.77;;;6.20;99.90;;;;;;4994844;28;20046;-76
2022/04/05 02:22:43;;;;;;;4.93;1.98;;;6.20;99.90;;;;;;4974942;28;20078;-76
2022/04/05 02:25:09;;;;;;;6.45;2.00;;;6.20;99.90;;;;;;4966663;28;20484;-76
2022/04/05 02:27:34;;;;;;;4.10;1.77;;;6.30;99.90;;;;;;4959085;28;20125;-76
2022/04/05 02:30:00;;;;;;;4.70;1.77;;;6.20;99.90;;;;;;4975595;28;20129;-76
2022/04/05 02:32:38;;;;;;;4.95;1.80;;;6.20;99.90;;;;;;5004226;23;20038;-80
2022/04/05 02:35:18;;;;;;;5.78;1.50;;;6.10;99.90;;;;;;5002913;28;20040;-79
2022/04/05 02:37:53;;;;;;;3.75;1.30;;;6.20;99.90;;;;;;5003379;28;20064;-80
2022/04/05 02:40:26;;;;;;;4.80;1.67;;;6.10;99.90;;;;;;4999592;28;20033;-80
2022/04/05 02:42:58;;;;;;;4.15;1.80;;;6.10;99.90;;;;;;4983381;28;20052;-80
2022/04/05 02:45:31;;;;;;;5.72;1.90;;;6.10;99.90;;;;;;4995590;28;20120;-79
2022/04/05 02:48:11;;;;;;;6.20;1.80;;;6.00;99.90;;;;;;5019448;28;20478;-80
2022/04/05 02:50:40;;;;;;;8.02;1.50;;;6.10;99.90;;;;;;5004159;28;20080;-80
2022/04/05 02:53:07;;;;;;;5.30;1.38;;;6.10;99.90;;;;;;5002872;28;20041;-80
2022/04/05 02:55:34;;;;;;;6.72;1.63;;;6.10;99.90;;;;;;5003748;28;20045;-80
2022/04/05 02:58:14;;;;;;;3.40;1.67;;;6.10;99.90;;;;;;5003295;28;20043;-80
2022/04/05 03:00:44;;;;;;;7.25;1.98;;;6.00;99.90;;;;;;5003405;28;20122;-80
2022/04/05 03:03:16;;;;;;;5.00;1.63;;;6.10;99.90;;;;;;4996459;28;20053;-80
2022/04/05 03:05:50;;;;;;;6.18;1.90;;;6.10;99.90;;;;;;4987228;28;20041;-79
2022/04/05 03:08:19;;;;;;;7.18;2.25;;;6.00;99.90;;;;;;4984183;28;20045;-80
2022/04/05 03:10:47;;;;;;;5.90;1.95;;;6.00;99.90;;;;;;5001148;28;20034;-80
2022/04/05 03:13:20;;;;;;;3.30;1.85;;;6.00;99.90;;;;;;4984266;28;20041;-80
2022/04/05 03:15:57;;;;;;;6.35;2.17;;;6.00;99.90;;;;;;4995943;28;20048;-80
2022/04/05 03:18:33;;;;;;;8.68;2.63;;;6.10;99.90;;;;;;5005125;28;20052;-80
2022/04/05 03:20:59;;;;;;;8.07;2.30;;;6.00;99.90;;;;;;4988631;28;20076;-80
2022/04/05 03:23:33;;;;;;;7.38;2.45;;;6.00;99.90;;;;;;5002810;28;20057;-80
2022/04/05 03:26:04;;;;;;;10.63;2.85;;;6.10;99.90;;;;;;5003307;28;20045;-80
2022/04/05 03:28:33;;;;;;;8.25;2.72;;;6.10;99.90;;;;;;5003689;28;20073;-80
2022/04/05 03:31:04;;;;;;;8.38;3.17;;;6.10;99.90;;;;;;5007007;28;20044;-80
2022/04/05 03:33:52;;;;;;;9.07;3.80;;;6.10;99.90;;;;;;5007672;28;20143;-79
2022/04/05 03:36:37;;;;;;;;;;;;;;;;;;;;;
2022/04/05 03:39:06;;;;;;;9.07;3.67;;;6.20;99.90;;;;;;5004868;28;20385;-79
2022/04/05 03:41:41;;;;;;;7.78;3.63;;;6.20;99.90;;;;;;5001167;28;20068;-80
2022/04/05 03:44:15;;;;;;;13.60;3.90;;;6.20;99.90;;;;;;4988249;28;20046;-79
2022/04/05 03:47:00;;;;;;;7.97;3.95;;;6.20;99.90;;;;;;5007800;28;20499;-80
2022/04/05 03:52:27;;;;;;;9.60;4.23;;;6.30;99.90;;;;;;5026269;28;20072;-80
2022/04/05 03:55:00;;;;;;;12.02;4.40;;;6.30;99.90;;;;;;5011039;28;20034;-80
2022/04/05 03:57:32;;;;;;;9.82;4.82;;;6.40;99.90;;;;;;5011256;28;20048;-80
2022/04/05 04:00:02;;;;;;;13.88;4.75;;;6.30;99.90;;;;;;5011699;28;20041;-80
2022/04/05 04:02:36;;;;;;;13.63;5.22;;;6.30;99.90;;;;;;4993994;28;20110;-80
2022/04/05 04:05:06;;;;;;;11.30;4.72;;;6.30;99.90;;;;;;5003750;28;20049;-80
2022/04/05 04:07:42;;;;;;;;;;;6.40;99.90;;;;;;5017885;28;20049;-80
2022/04/05 04:10:16;;;;;;;10.02;4.40;;;6.40;99.90;;;;;;5015799;28;19917;-80
2022/04/05 04:12:57;;;;;;;12.27;4.65;;;6.40;99.90;;;;;;5015774;28;20100;-80
2022/04/05 04:15:34;;;;;;;10.88;4.25;;;6.30;99.90;;;;;;5014944;28;20104;-80
2022/04/05 04:18:09;;;;;;;9.07;4.18;;;6.40;99.90;;;;;;5014953;28;20041;-81
2022/04/05 04:20:44;;;;;;;10.73;4.00;;;6.40;99.90;;;;;;5015740;28;20052;-80
2022/04/05 04:23:26;;;;;;;;;;;;;;;;;;;;;
2022/04/05 04:25:53;;;;;;;9.45;4.07;;;6.30;99.90;;;;;;5032137;28;20045;-80
2022/04/05 04:28:25;;;;;;;10.27;4.45;;;6.30;99.90;;;;;;5031621;28;20041;-80
2022/04/05 04:34:01;;;;;;;7.57;4.47;;;6.30;99.90;;;;;;5030821;28;20037;-80
2022/04/05 04:36:33;;;;;;;12.77;4.20;;;6.30;99.90;;;;;;5008068;28;20105;-80
2022/04/05 04:39:19;;;;;;;10.70;4.00;;;6.30;99.90;;;;;;5016443;28;20073;-80
2022/04/05 04:41:48;;;;;;;9.68;3.65;;;6.30;99.90;;;;;;5018346;28;20049;-80
2022/04/05 04:44:40;;;;;;;9.02;3.65;;;6.30;99.90;;;;;;5020728;28;20044;-79
2022/04/05 04:47:09;;;;;;;7.22;3.35;;;6.30;99.90;;;;;;5011732;28;20128;-80
2022/04/05 04:49:43;;;;;;;10.95;3.22;;;6.30;99.90;;;;;;5007559;28;20612;-79
2022/04/05 04:52:19;;;;;;;5.70;2.53;;;6.30;99.90;;;;;;5007353;28;20303;-80
2022/04/05 04:54:51;;;;;;;8.05;2.97;;;6.20;99.90;;;;;;5006915;28;20045;-80
2022/04/05 04:57:25;;;;;;;7.50;3.05;;;6.20;99.90;;;;;;5006286;28;20045;-80
2022/04/05 05:00:22;;;;;;;6.72;2.47;;;6.20;99.90;;;;;;5006457;28;20511;-80
2022/04/05 05:02:59;;;;;;;8.77;2.75;;;6.20;99.90;;;;;;5006569;28;20200;-80
2022/04/05 05:05:42;;;;;;;6.35;2.70;;;6.30;99.90;;;;;;5006568;28;20418;-80
2022/04/05 05:08:11;;;;;;;10.77;3.30;;;6.20;99.90;;;;;;5005915;28;20034;-80
2022/04/05 05:10:44;;;;;;;7.40;2.53;;;6.20;99.90;;;;;;5005433;28;20057;-80
2022/04/05 05:13:16;;;;;;;6.82;2.67;;;6.20;99.90;;;;;;5001330;28;20072;-79
2022/04/05 05:15:45;;;;;;;8.98;2.70;;;6.20;99.90;;;;;;4998337;28;20065;-80
2022/04/05 05:18:17;;;;;;;6.78;2.22;;;6.20;99.90;;;;;;4998685;28;20042;-80
2022/04/05 05:20:47;;;;;;;9.23;2.28;;;6.10;99.90;;;;;;4999738;28;20045;-80
2022/04/05 05:23:21;;;;;;;4.93;1.80;;;6.20;99.90;;;;;;4999957;28;20385;-80
2022/04/05 05:26:02;;;;;;;3.88;1.60;;;6.20;99.90;;;;;;5001898;28;20046;-80
2022/04/05 05:28:36;;;;;;;6.90;1.80;;;6.20;99.90;;;;;;4988256;28;20041;-80
2022/04/05 05:31:16;;;;;;;3.78;1.42;;;6.20;99.90;;;;;;4985690;28;20057;-79
2022/04/05 05:36:45;;;;;;;4.57;1.30;;;6.10;99.90;;;;;;5014943;28;20052;-79
2022/04/05 05:39:25;;;;;;;3.42;1.10;;;6.20;99.90;;;;;;4998121;28;20045;-78
2022/04/05 05:42:09;;;;;;;4.68;1.00;;;6.10;99.90;;;;;;4998902;28;20466;-79
2022/04/05 05:44:49;;;;;;;3.25;1.20;;;6.10;99.90;;;;;;4993821;28;20038;-78
2022/04/05 05:47:34;;;;;;;;;;;;;;;;;;;;;
2022/04/05 05:50:48;;;;;;;4.53;1.20;;;6.10;99.90;;;;;;4995520;28;20404;-79
2022/04/05 05:53:34;;;;;;;2.60;1.00;;;6.10;99.90;;;;;;4999092;28;20081;-79
2022/04/05 05:59:22;;;;;;;3.40;1.10;;;6.10;99.90;;;;;;5014671;28;20444;-78
2022/04/05 06:02:33;;;;;;;1.48;0.60;;;6.10;99.90;;;;;;5004542;28;20051;-80
2022/04/05 06:05:43;;;;;;;2.55;0.80;;;6.10;99.90;;;;;;4998019;28;20057;-80
2022/04/05 06:08:47;;;;;;;3.15;0.90;;;6.00;99.90;;;;;;4995452;28;20041;-80
2022/04/05 06:11:53;;;;;;;3.67;0.93;;;6.00;99.90;;;;;;4990402;28;20092;-79
2022/04/05 06:14:38;;;;;;;1.60;0.88;;;6.10;99.90;;;;;;4970754;28;20100;-78
2022/04/05 06:17:10;;;;;;;6.65;1.50;;;6.10;99.90;;;;;;5000099;28;20034;-78
2022/04/05 06:19:50;;;;;;;3.88;1.25;;;6.20;99.90;;;;;;4998223;28;20034;-78
2022/04/05 06:22:20;;;;;;;3.90;1.23;;;6.30;99.90;;;;;;4994553;28;20045;-78
2022/04/05 06:24:46;;;;;;;2.65;0.77;;;6.30;99.90;;;;;;4996693;28;20531;-78
2022/04/05 06:27:20;;;;;;;4.72;1.40;;;6.30;99.90;;;;;;4996646;28;20548;-77
2022/04/05 06:29:48;;;;;;;5.85;1.30;;;6.40;99.90;;;;;;4998658;28;20034;-77
2022/04/05 06:32:22;;;;;;;3.15;1.20;;;6.40;99.90;;;;;;4994680;28;20055;-78
2022/04/05 06:35:20;;;;;;;3.70;1.38;;;6.60;99.90;;;;;;4995934;28;20048;-81
2022/04/05 06:38:05;;;;;;;5.72;1.98;;;6.60;99.90;;;;;;5009525;28;20056;-81
2022/04/05 06:41:09;;;;;;;5.93;1.70;;;6.70;99.90;;;;;;5006575;28;20064;-80
2022/04/05 06:43:44;;;;;;;3.47;1.90;;;6.80;99.90;;;;;;4997827;28;20052;-80
2022/04/05 06:46:11;;;;;;;4.38;1.23;;;6.80;99.90;;;;;;5006214;28;20033;-80
2022/04/05 06:48:45;;;;;;;4.30;0.95;;;6.90;99.90;;;;;;5023004;28;20041;-81
2022/04/05 06:51:24;;;;;;;4.82;1.17;;;6.90;99.90;;;;;;5010078;28;20617;-80
2022/04/05 06:54:05;;;;;;;1.35;1.00;;;6.90;99.90;;;;;;4990626;28;20049;-80
2022/04/05 06:56:42;;;;;;;4.22;1.10;;;7.00;99.90;;;;;;4991603;28;20462;-80
2022/04/05 06:59:21;;;;;;;2.22;0.90;;;7.00;99.90;;;;;;5018396;28;20045;-80
2022/04/05 07:01:51;;;;;;;1.17;0.73;;;7.00;99.90;;;;;;5005457;28;20069;-81
2022/04/05 07:04:29;;;;;;;1.60;0.60;;;7.00;99.90;;;;;;5005142;28;20107;-80
2022/04/05 07:07:01;;;;;;;2.15;0.60;;;7.00;99.90;;;;;;5006348;28;20049;-80
2022/04/05 07:09:44;;;;;;;1.00;0.60;;;6.90;99.90;;;;;;5026501;28;20052;-82
2022/04/05 07:15:44;;;;;;;2.10;0.60;;;7.00;99.90;;;;;;5024778;28;20276;-80
2022/04/05 07:18:47;;;;;;;;;;;;;;;;;;;;;
2022/04/05 07:21:47;;;;;;;1.48;0.60;;;7.00;99.90;;;;;;5009205;28;20071;-85
2022/04/05 07:24:52;;;;;;;1.70;0.55;;;7.00;99.90;;;;;;5017514;28;20041;-78
2022/04/05 07:27:53;;;;;;;;;;;;;;;;;;;;;
2022/04/05 07:31:13;;;;;;;1.65;0.45;;;7.00;99.90;;;;;;5005621;28;20099;-81
2022/04/05 07:36:56;;;;;;;3.28;0.70;;;7.00;99.90;;;;;;4978761;28;20041;-80
2022/04/05 07:40:00;;;;;;;1.08;0.68;;;7.10;99.90;;;;;;5022671;28;20044;-80
2022/04/05 07:43:24;;;;;;;1.02;0.85;;;7.20;99.90;;;;;;4989462;28;20246;-80
2022/04/05 07:46:14;;;;;;;2.05;0.93;;;7.20;99.90;;;;;;4990384;28;20478;-80
2022/04/05 07:52:19;;;;;;;3.50;1.80;;;7.30;99.90;;;;;;4920454;29;20055;-78
2022/04/05 07:55:12;;;;;;;3.17;1.23;;;7.30;99.90;;;;;;4989369;28;20060;-80
2022/04/05 07:57:55;;;;;;;1.45;1.17;;;7.40;99.90;;;;;;4984026;28;20042;-80
2022/04/05 08:07:27;;;;;;;2.05;1.52;;;7.40;99.90;;;;;;5010265;28;20104;-80
2022/04/05 08:14:06;;;;;;;3.00;2.03;;;7.50;99.90;;;;;;4995080;28;20049;-80
2022/04/05 08:17:16;;;;;;;3.67;2.45;;;7.60;99.90;;;;;;4966606;28;20050;-80
2022/04/05 08:20:19;;;;;;;4.13;2.60;;;7.60;99.90;;;;;;4982012;28;20046;-80
2022/04/05 08:23:04;;;;;;;4.85;2.83;;;7.70;99.90;;;;;;4965610;28;20493;-80
2022/04/05 08:26:12;;;;;;;4.13;2.60;;;7.70;99.90;;;;;;4965856;28;20506;-80
2022/04/05 08:29:16;;;;;;;;;;;;;;;;;;;;;
2022/04/05 08:32:12;;;;;;;3.90;1.90;;;7.60;99.90;;;;;;4984654;28;20055;-80
2022/04/05 08:34:49;;;;;;;4.35;2.30;;;7.70;99.90;;;;;;4976380;28;20073;-81
2022/04/05 08:41:07;;;;;;;5.10;2.58;;;7.70;99.90;;;;;;5019783;28;20076;-80
2022/04/05 08:45:10;;;;;;;;;;;;;;;;;;;;;
2022/04/05 08:48:53;;;;;;;3.67;1.90;;;7.80;99.90;;;;;;5028748;28;20049;-80
2022/04/05 08:52:12;;;;;;;;;;;;;;;;;;;;;
2022/04/05 09:04:04;;;;;;;;;;;;;;;;;;;;;
2022/04/05 09:07:21;;;;;;;3.75;2.40;;;8.20;99.90;;;;;;4918612;29;20438;-79
2022/04/05 09:10:46;;;;;;;4.65;3.15;;;8.20;99.90;;;;;;4931496;29;20043;-80
2022/04/05 09:13:38;;;;;;;;;;;8.30;99.90;;;;;;4959521;29;20426;-79
2022/04/05 09:16:34;;;;;;;5.05;2.92;;;8.20;99.90;;;;;;4960313;28;19918;-79
2022/04/05 09:20:12;;;;;;;4.63;3.00;;;8.30;99.90;;;;;;4952830;29;20051;-79
2022/04/05 09:23:08;;;;;;;5.65;4.07;;;8.50;99.90;;;;;;4922214;29;20055;-79
2022/04/05 09:29:23;;;;;;;7.40;4.93;;;8.60;99.90;;;;;;4982927;28;20073;-80
2022/04/05 09:32:21;;;;;;;7.72;3.92;;;8.60;99.90;;;;;;5000125;28;20050;-80
2022/04/05 09:35:27;;;;;;;9.02;4.97;;;8.60;99.90;;;;;;5023152;28;20495;-81
2022/04/05 09:38:23;;;;;;;9.40;6.53;;;8.70;99.90;;;;;;5011971;28;20046;-80
2022/04/05 09:41:18;;;;;;;12.13;7.47;;;8.70;99.90;;;;;;5012151;28;20042;-80
2022/04/05 09:47:10;;;;;;;11.35;7.38;;;8.90;99.90;;;;;;5027012;28;20105;-81
2022/04/05 09:50:08;;;;;;;;;;;;;;;;;;;;;
2022/04/05 09:53:35;;;;;;;14.95;9.95;;;9.10;99.90;;;;;;5012500;28;19967;-80
2022/04/05 09:56:27;;;;;;;13.55;9.35;;;9.30;99.90;;;;;;5019059;28;20044;-79
2022/04/05 09:59:04;;;;;;;14.25;8.50;;;9.40;99.90;;;;;;5015807;28;20051;-77
2022/04/05 10:01:45;;;;;;;13.55;8.00;;;9.40;99.90;;;;;;4996412;28;20388;-78
2022/04/05 10:04:33;;;;;;;12.68;8.77;;;9.50;99.90;;;;;;4999336;28;20075;-78
2022/04/05 10:07:17;;;;;;;14.10;9.13;;;9.70;99.90;;;;;;4997319;28;20045;-78
2022/04/05 10:09:52;;;;;;;12.20;7.88;;;9.80;99.90;;;;;;4997558;28;20323;-78
2022/04/05 10:12:18;;;;;;;9.32;6.72;;;10.10;99.90;;;;;;4994698;28;20514;-75
2022/04/05 10:14:44;;;;;;;9.13;5.63;;;10.30;99.90;;;;;;4979062;28;20088;-77
2022/04/05 10:17:17;;;;;;;8.35;5.65;;;10.50;99.90;;;;;;4988689;28;20517;-77
2022/04/05 10:19:54;;;;;;;8.50;5.50;;;10.50;99.90;;;;;;4994552;28;20046;-76
2022/04/05 10:22:26;;;;;;;7.63;5.85;;;10.50;99.90;;;;;;4979106;28;20104;-77
2022/04/05 10:24:58;;;;;;;7.35;6.07;;;10.40;99.90;;;;;;4978305;28;20129;-77
2022/04/05 10:27:33;;;;;;;8.90;6.13;;;10.20;99.90;;;;;;4982910;28;20181;-77
2022/04/05 10:30:13;;;;;;;6.97;5.25;;;10.20;99.90;;;;;;4997206;28;20053;-77
2022/04/05 10:33:17;;;;;;;8.07;5.20;;;10.20;99.90;;;;;;4997673;28;20049;-77
2022/04/05 10:35:57;;;;;;;7.15;5.30;;;10.20;99.90;;;;;;4997667;28;20084;-76
2022/04/05 10:38:24;;;;;;;7.32;5.18;;;10.30;99.90;;;;;;4997735;28;20098;-77
2022/04/05 10:41:13;;;;;;;7.25;4.35;;;10.20;99.90;;;;;;4998187;28;20041;-78
2022/04/05 10:44:19;;;;;;;6.00;4.68;;;10.10;99.90;;;;;;5000013;28;20050;-78
2022/04/05 10:46:59;;;;;;;5.35;4.50;;;10.10;99.90;;;;;;4994192;28;20038;-77
2022/04/05 10:49:56;;;;;;;7.10;5.55;;;9.90;99.90;;;;;;5012258;28;20048;-79
2022/04/05 10:57:35;;;;;;;8.13;5.63;;;10.00;99.90;;;;;;4890778;29;20090;-77
2022/04/05 11:00:39;;;;;;;6.85;5.50;;;10.20;99.90;;;;;;4917495;29;20087;-78
2022/04/05 11:03:31;;;;;;;11.85;5.97;;;10.20;99.90;;;;;;4906719;29;20083;-78
2022/04/05 11:06:18;;;;;;;9.07;5.63;;;10.30;99.90;;;;;;4903049;29;20051;-77
2022/04/05 11:09:22;;;;;;;9.27;6.22;;;10.10;99.90;;;;;;4988843;28;20045;-77
2022/04/05 11:11:55;;;;;;;;;;;10.10;99.90;;;;;;5011580;28;20053;-77
2022/04/05 11:14:50;;;;;;;10.65;6.53;;;10.20;99.90;;;;;;4997617;28;20007;-77
2022/04/05 11:17:26;;;;;;;11.32;6.55;;;10.30;99.90;;;;;;4997244;28;20045;-78
2022/04/05 11:19:57;;;;;;;10.38;6.60;;;10.40;99.90;;;;;;4997308;28;20053;-77
2022/04/05 11:22:32;;;;;;;13.43;7.38;;;10.40;99.90;;;;;;4995768;28;20037;-76
2022/04/05 11:25:09;;;;;;;12.85;7.68;;;10.60;99.90;;;;;;4996800;28;20047;-76
2022/04/05 11:27:45;;;;;;;18.05;7.53;;;10.80;99.90;;;;;;4997195;28;20492;-76
2022/04/05 11:30:26;;;;;;;10.93;6.75;;;11.00;99.90;;;;;;5011440;28;20076;-76
2022/04/05 11:33:16;;;;;;;12.80;7.10;;;11.10;99.90;;;;;;5010899;28;20120;-76
2022/04/05 11:35:43;;;;;;;13.52;6.50;;;11.10;99.90;;;;;;4991622;28;20085;-76
2022/04/05 11:38:26;;;;;;;10.20;6.20;;;11.10;99.90;;;;;;4994121;28;20060;-76
2022/04/05 11:41:00;;;;;;;9.95;6.68;;;11.10;99.90;;;;;;5012848;28;20045;-77
2022/04/05 11:43:30;;;;;;;11.10;5.93;;;11.20;99.90;;;;;;4996011;28;20174;-76
2022/04/05 11:46:11;;;;;;;9.40;6.07;;;11.20;99.90;;;;;;4996904;28;20046;-76
2022/04/05 11:48:56;;;;;;;12.23;5.75;;;11.30;99.90;;;;;;4997057;28;20053;-76
2022/04/05 11:51:48;;;;;;;10.02;5.85;;;11.20;99.90;;;;;;4999904;28;20462;-79
2022/04/05 11:54:27;;;;;;;11.52;6.30;;;11.00;99.90;;;;;;5005125;28;20095;-78
2022/04/05 11:57:25;;;;;;;11.50;6.40;;;10.90;99.90;;;;;;4998034;28;20099;-78
2022/04/05 12:00:05;;;;;;;9.75;6.65;;;10.80;99.90;;;;;;5005251;28;20092;-79
2022/04/05 12:02:35;;;;;;;12.85;7.07;;;10.80;99.90;;;;;;5003368;28;20379;-78
2022/04/05 12:05:28;;;;;;;10.20;6.72;;;10.60;99.90;;;;;;5002911;28;20468;-78
2022/04/05 12:08:04;;;;;;;11.13;6.88;;;10.60;99.90;;;;;;5003782;28;20045;-77
2022/04/05 12:10:48;;;;;;;9.20;6.13;;;10.60;99.90;;;;;;4990722;28;20044;-78
2022/04/05 12:13:27;;;;;;;10.85;6.57;;;10.70;99.90;;;;;;5017108;28;20048;-77
2022/04/05 12:16:01;;;;;;;12.50;6.15;;;11.00;99.90;;;;;;4997259;28;20136;-77
2022/04/05 12:18:36;;;;;;;10.55;6.13;;;11.30;99.90;;;;;;4995759;28;20054;-77
2022/04/05 12:21:03;;;;;;;14.50;7.15;;;11.30;99.90;;;;;;5010561;28;20397;-77
2022/04/05 12:23:47;;;;;;;12.63;7.65;;;11.10;99.90;;;;;;4998823;28;20105;-77
2022/04/05 12:26:23;;;;;;;18.27;8.68;;;11.00;99.90;;;;;;4993428;28;20500;-77
2022/04/05 12:28:59;;;;;;;18.10;8.80;;;10.90;99.90;;;;;;4981593;28;20048;-77
2022/04/05 12:31:34;;;;;;;17.75;8.38;;;10.90;99.90;;;;;;4983278;28;20168;-77
2022/04/05 12:34:20;;;;;;;14.95;7.85;;;10.80;99.90;;;;;;4980445;28;20078;-77
2022/04/05 12:36:58;;;;;;;16.48;8.10;;;10.80;99.90;;;;;;5000368;28;20068;-77
2022/04/05 12:39:27;;;;;;;15.55;7.68;;;10.60;99.90;;;;;;5000636;28;20049;-77
2022/04/05 12:42:17;;;;;;;17.13;7.65;;;10.60;99.90;;;;;;4996668;28;20117;-77
2022/04/05 12:44:45;;;;;;;16.17;7.70;;;10.50;99.90;;;;;;4984198;28;20116;-77
2022/04/05 12:47:14;;;;;;;13.32;8.60;;;10.50;99.90;;;;;;5016525;28;21739;-77
2022/04/05 12:49:50;;;;;;;16.45;8.65;;;10.60;99.90;;;;;;4996930;28;20046;-77
2022/04/05 12:52:44;;;;;;;22.33;9.05;;;10.60;99.90;;;;;;4982640;28;20054;-76
2022/04/05 12:55:14;;;;;;;15.75;7.95;;;10.70;99.90;;;;;;4999625;28;20519;-77
2022/04/05 12:57:47;;;;;;;16.17;8.43;;;10.70;99.90;;;;;;4999417;28;20052;-76
2022/04/05 13:00:18;;;;;;;13.00;8.65;;;10.60;99.90;;;;;;4998978;28;20534;-77
2022/04/05 13:03:03;;;;;;;10.25;7.97;;;10.50;99.90;;;;;;4999212;28;20037;-77
2022/04/05 13:08:36;;;;;;;18.10;8.18;;;10.30;99.90;;;;;;5015881;28;20474;-77
2022/04/05 13:11:28;;;;;;;12.00;7.72;;;10.20;99.90;;;;;;4999481;28;20099;-77
2022/04/05 13:14:10;;;;;;;15.73;7.87;;;10.10;99.90;;;;;;4992636;28;20041;-77
2022/04/05 13:16:46;;;;;;;15.15;7.60;;;10.10;99.90;;;;;;4995141;28;20034;-77
2022/04/05 13:19:37;;;;;;;19.42;8.35;;;10.00;99.90;;;;;;4989777;28;20095;-77
2022/04/05 13:22:15;;;;;;;12.52;9.10;;;10.10;99.90;;;;;;4999425;28;20519;-77
2022/04/05 13:25:05;;;;;;;17.33;8.90;;;10.10;99.90;;;;;;4995592;28;20057;-77
2022/04/05 13:27:58;;;;;;;14.77;7.22;;;10.10;99.90;;;;;;4988016;28;20037;-78
2022/04/05 13:33:41;;;;;;;;;;;10.10;99.90;;;;;;4993967;28;20152;-77
2022/04/05 13:36:10;;;;;;;12.60;6.95;;;10.10;99.90;;;;;;4984751;28;19924;-77
2022/04/05 13:38:40;;;;;;;11.07;6.50;;;10.20;99.90;;;;;;5011942;28;20155;-77
2022/04/05 13:41:14;;;;;;;9.23;6.22;;;10.10;99.90;;;;;;4995309;28;20042;-77
2022/04/05 13:44:09;;;;;;;14.35;6.63;;;10.10;99.90;;;;;;4990339;28;20054;-77
2022/04/05 13:46:52;;;;;;;12.15;6.95;;;10.00;99.90;;;;;;4979830;28;20045;-78
2022/04/05 13:49:32;;;;;;;11.63;7.43;;;10.00;99.90;;;;;;4980091;28;20400;-77
2022/04/05 13:52:09;;;;;;;10.68;6.55;;;10.00;99.90;;;;;;5010699;28;20116;-77
2022/04/05 13:54:49;;;;;;;11.20;7.70;;;10.10;99.90;;;;;;4995870;28;20045;-78
2022/04/05 13:57:20;;;;;;;12.40;5.45;;;10.10;99.90;;;;;;5000766;28;20045;-78
2022/04/05 13:59:46;;;;;;;13.27;7.53;;;10.10;99.90;;;;;;5000724;28;20045;-77
2022/04/05 14:02:35;;;;;;;14.23;6.90;;;10.10;99.90;;;;;;4999502;28;20055;-77
2022/04/05 14:05:41;;;;;;;14.50;6.75;;;10.00;99.90;;;;;;5018330;28;20069;-76
2022/04/05 14:11:15;;;;;;;14.75;8.10;;;10.00;99.90;;;;;;5015308;28;20237;-77
2022/04/05 14:13:50;;;;;;;12.95;8.00;;;10.00;99.90;;;;;;4997965;28;20041;-77
2022/04/05 14:16:29;;;;;;;14.50;8.83;;;10.00;99.90;;;;;;4998942;28;20045;-77
2022/04/05 14:19:26;;;;;;;15.07;8.30;;;10.00;99.90;;;;;;4995425;28;20041;-77
2022/04/05 14:22:03;;;;;;;15.63;8.25;;;10.00;99.90;;;;;;4979583;28;20496;-77
2022/04/05 14:24:32;;;;;;;19.42;8.98;;;10.10;99.90;;;;;;4993124;28;20605;-77
2022/04/05 14:27:07;;;;;;;;;;;;;;;;;;;;;
2022/04/05 14:29:39;;;;;;;14.60;8.55;;;10.10;99.90;;;;;;5013626;28;20462;-77
2022/04/05 14:32:16;;;;;;;15.75;8.50;;;10.10;99.90;;;;;;4997721;28;20037;-77
2022/04/05 14:34:41;;;;;;;16.98;8.80;;;10.20;99.90;;;;;;4989392;23;20413;-77
2022/04/05 14:37:07;;;;;;;16.02;8.77;;;10.20;99.90;;;;;;4971425;28;20199;-77
2022/04/05 14:39:33;;;;;;;17.15;8.80;;;10.20;99.90;;;;;;4971383;28;20067;-77
2022/04/05 14:41:59;;;;;;;15.07;8.88;;;10.30;99.90;;;;;;4971235;28;20077;-77
2022/04/05 14:44:24;;;;;;;15.73;8.77;;;10.20;99.90;;;;;;4970154;28;20404;-77
2022/04/05 14:46:50;;;;;;;16.98;9.63;;;10.30;99.90;;;;;;4952704;29;20091;-77
2022/04/05 14:49:17;;;;;;;18.98;9.82;;;10.30;99.90;;;;;;4952663;28;20409;-78
2022/04/05 14:51:43;;;;;;;16.83;9.45;;;10.30;99.90;;;;;;4951414;29;20114;-77
2022/04/05 14:54:12;;;;;;;16.05;8.70;;;10.30;99.90;;;;;;4952160;29;20243;-77
2022/04/05 14:56:38;;;;;;;17.48;9.65;;;10.30;99.90;;;;;;4952427;29;20047;-77
2022/04/05 14:59:03;;;;;;;17.90;10.55;;;10.40;99.90;;;;;;4951744;28;20032;-76
2022/04/05 15:01:30;;;;;;;16.08;9.32;;;10.40;99.90;;;;;;4952749;29;20093;-77
2022/04/05 15:03:56;;;;;;;14.77;9.60;;;10.40;99.90;;;;;;4950480;29;20039;-77
2022/04/05 15:06:23;;;;;;;14.18;9.05;;;10.40;99.90;;;;;;4969173;28;20088;-77
2022/04/05 15:08:50;;;;;;;15.00;8.63;;;10.30;99.90;;;;;;4955678;28;20125;-77